Market Rasen, United Kingdom
Current Conditions -  °F | °C
As of 7:50 AM on Friday 31 Oct 2014 (Local Time) from EGXP Reporting Station
Haze Haze  
Wind Chill: 59°   Ceiling: 900
Heat Index: 59°   Visibility: 2.1mi
Dew Point: 57°   Wind: 10mph
Humidity: 94%   Direction: 180°S
Pressure: 29.97"   Gusts: NA
Location:  53.39°N, 0.34°W
Report Text: EGXP 310750Z 18009KT 3500 BR OVC009 15/14 Q1015 YLO1
Loading
Personal Weather Stations






























Interactive Weather Map
Tropical Storm Tracking
New forecast layout! Learn more

10-Day Weather Forecast

Advertisements
Track Severe Weather on mobile